createdAt,value
2023-03-28T00:01:09.783Z,-0.31
2023-03-28T00:03:41.477Z,-0.32
2023-03-28T00:06:18.661Z,-0.34
2023-03-28T00:08:48.057Z,-0.33
2023-03-28T00:11:20.533Z,-0.30
2023-03-28T00:13:57.737Z,-0.30
2023-03-28T00:16:32.584Z,-0.31
2023-03-28T00:19:03.294Z,-0.32
2023-03-28T00:21:34.045Z,-0.29
2023-03-28T00:24:05.018Z,-0.32
2023-03-28T00:26:35.814Z,-0.31
2023-03-28T00:29:09.103Z,-0.34
2023-03-28T00:31:39.192Z,-0.33
2023-03-28T00:34:07.442Z,-0.33
2023-03-28T00:36:39.098Z,-0.38
2023-03-28T00:39:07.841Z,-0.42
2023-03-28T00:41:40.254Z,-0.44
2023-03-28T00:44:44.864Z,-0.47
2023-03-28T00:47:27.807Z,-0.48
2023-03-28T00:50:03.074Z,-0.50
2023-03-28T00:52:33.768Z,-0.50
2023-03-28T00:55:04.617Z,-0.52
2023-03-28T00:57:33.771Z,-0.53
2023-03-28T01:00:01.838Z,-0.49
2023-03-28T01:02:30.440Z,-0.53
2023-03-28T01:05:03.920Z,-0.49
2023-03-28T01:07:40.913Z,-0.52
2023-03-28T01:10:09.506Z,-0.51
2023-03-28T01:12:41.157Z,-0.53
2023-03-28T01:15:10.685Z,-0.56
2023-03-28T01:17:48.376Z,-0.56
2023-03-28T01:20:42.101Z,-0.60
2023-03-28T01:23:26.555Z,-0.56
2023-03-28T01:26:17.809Z,-0.58
2023-03-28T01:28:52.520Z,-0.55
2023-03-28T01:31:41.811Z,-0.58
2023-03-28T01:34:43.042Z,-0.55
2023-03-28T01:37:14.704Z,-0.54
2023-03-28T01:39:53.189Z,-0.55
2023-03-28T01:42:33.876Z,-0.53
2023-03-28T01:45:15.394Z,-0.51
2023-03-28T01:48:02.747Z,-0.51
2023-03-28T01:50:44.123Z,-0.49
2023-03-28T01:53:40.668Z,-0.50
2023-03-28T01:56:30.752Z,-0.51
2023-03-28T01:59:33.025Z,-0.49
2023-03-28T02:02:37.061Z,-0.48
2023-03-28T02:05:25.516Z,-0.47
2023-03-28T02:07:55.208Z,-0.46
2023-03-28T02:10:55.663Z,-0.48
2023-03-28T02:14:07.329Z,-0.49
2023-03-28T02:17:04.871Z,-0.46
2023-03-28T02:20:11.817Z,-0.47
2023-03-28T02:23:16.098Z,-0.57
2023-03-28T02:26:03.102Z,-0.60
2023-03-28T02:28:53.843Z,-0.57
2023-03-28T02:31:46.554Z,-0.59
2023-03-28T02:34:14.511Z,-0.59
2023-03-28T02:37:01.593Z,-0.57
2023-03-28T02:39:48.246Z,-0.60
2023-03-28T02:42:31.578Z,-0.60
2023-03-28T02:45:22.728Z,-0.61
2023-03-28T02:48:12.646Z,-0.57
2023-03-28T02:50:49.972Z,-0.59
2023-03-28T02:53:27.565Z,-0.60
2023-03-28T02:56:04.866Z,-0.61
2023-03-28T02:59:29.784Z,-0.60
2023-03-28T03:01:57.926Z,-0.60
2023-03-28T03:04:26.008Z,-0.61
2023-03-28T03:06:54.686Z,-0.64
2023-03-28T03:09:23.114Z,-0.64
2023-03-28T03:11:51.165Z,-0.65
2023-03-28T03:14:19.235Z,-0.65
2023-03-28T03:16:49.007Z,-0.70
2023-03-28T03:19:20.212Z,-0.73
2023-03-28T03:21:49.662Z,-0.78
2023-03-28T03:24:17.783Z,-0.75
2023-03-28T03:26:45.840Z,-0.76
2023-03-28T03:29:17.500Z,-0.76
2023-03-28T03:31:46.336Z,-0.72
2023-03-28T03:34:43.561Z,-0.77
2023-03-28T03:37:11.638Z,-0.81
2023-03-28T03:39:40.002Z,-0.82
2023-03-28T03:42:07.973Z,-0.83
2023-03-28T03:44:36.996Z,-0.84
2023-03-28T03:47:06.512Z,-0.87
2023-03-28T03:49:34.926Z,-0.89
2023-03-28T03:52:04.635Z,-0.91
2023-03-28T03:54:32.674Z,-0.93
2023-03-28T03:57:02.950Z,-0.95
2023-03-28T03:59:33.146Z,-0.92
2023-03-28T04:02:01.777Z,-0.90
2023-03-28T04:04:50.605Z,-0.91
2023-03-28T04:07:23.566Z,-0.93
2023-03-28T04:09:53.376Z,-0.96
2023-03-28T04:12:22.201Z,-0.99
2023-03-28T04:14:51.988Z,-1.05
2023-03-28T04:17:41.515Z,-1.09
2023-03-28T04:20:21.529Z,-1.14
2023-03-28T04:23:05.932Z,-1.10
2023-03-28T04:25:34.620Z,-1.09
2023-03-28T04:28:08.478Z,-1.11
2023-03-28T04:30:39.437Z,-1.11
2023-03-28T04:33:49.727Z,-1.18
2023-03-28T04:36:19.075Z,-1.16
2023-03-28T04:38:53.171Z,-1.20
2023-03-28T04:41:40.873Z,-1.24
2023-03-28T04:44:46.966Z,-1.28
2023-03-28T04:47:16.084Z,-1.34
2023-03-28T04:49:44.122Z,-1.25
2023-03-28T04:52:12.341Z,-1.27
2023-03-28T04:54:43.748Z,-1.27
2023-03-28T04:57:18.156Z,-1.29
2023-03-28T04:59:48.760Z,-1.28
2023-03-28T05:02:27.122Z,-1.26
2023-03-28T05:05:04.071Z,-1.30
2023-03-28T05:07:40.921Z,-1.27
2023-03-28T05:10:10.754Z,-1.29
2023-03-28T05:12:41.474Z,-1.26
2023-03-28T05:15:09.859Z,-1.27
2023-03-28T05:17:47.434Z,-1.25
2023-03-28T05:20:26.870Z,-1.27
2023-03-28T05:22:57.405Z,-1.31
2023-03-28T05:25:26.269Z,-1.30
2023-03-28T05:27:56.500Z,-1.30
2023-03-28T05:30:25.355Z,-1.29
2023-03-28T05:32:56.676Z,-1.37
2023-03-28T05:35:27.120Z,-1.34
2023-03-28T05:37:55.386Z,-1.38
2023-03-28T05:40:23.845Z,-1.41
2023-03-28T05:42:52.750Z,-1.42
2023-03-28T05:45:22.676Z,-1.48
2023-03-28T05:48:01.426Z,-1.46
2023-03-28T05:50:31.771Z,-1.37
2023-03-28T05:53:04.861Z,-1.34
2023-03-28T05:55:35.559Z,-1.24
2023-03-28T05:58:05.362Z,-1.14
2023-03-28T06:00:38.570Z,-1.03
2023-03-28T06:03:08.134Z,-0.95
2023-03-28T06:05:40.040Z,-0.97
2023-03-28T06:08:15.782Z,-0.91
2023-03-28T06:10:44.551Z,-0.87
2023-03-28T06:13:20.075Z,-0.83
2023-03-28T06:15:48.913Z,-0.88
2023-03-28T06:18:18.700Z,-0.93
2023-03-28T06:20:48.048Z,-0.95
2023-03-28T06:23:16.702Z,-0.99
2023-03-28T06:25:45.387Z,-0.99
2023-03-28T06:28:15.268Z,-0.92
2023-03-28T06:31:02.309Z,-0.82
2023-03-28T06:33:31.360Z,-0.74
2023-03-28T06:35:59.679Z,-0.66
2023-03-28T06:38:30.619Z,-0.62
2023-03-28T06:40:59.334Z,-0.55
2023-03-28T06:43:27.543Z,-0.53
2023-03-28T06:46:10.257Z,-0.62
2023-03-28T06:48:43.395Z,-0.53
2023-03-28T06:51:26.808Z,-0.52
2023-03-28T06:53:56.259Z,-0.40
2023-03-28T06:56:30.396Z,-0.27
2023-03-28T06:58:59.247Z,-0.22
2023-03-28T07:01:28.557Z,-0.23
2023-03-28T07:04:10.503Z,-0.27
2023-03-28T07:06:39.145Z,-0.33
2023-03-28T07:09:07.281Z,-0.35
2023-03-28T07:11:41.764Z,-0.31
2023-03-28T07:14:11.545Z,-0.33
2023-03-28T07:16:40.016Z,-0.42
2023-03-28T07:19:08.599Z,-0.41
2023-03-28T07:21:38.205Z,-0.51
2023-03-28T07:24:08.006Z,-0.52
2023-03-28T07:26:54.855Z,-0.58
2023-03-28T07:29:30.171Z,-0.50
2023-03-28T07:31:58.420Z,-0.56
2023-03-28T07:34:26.935Z,-0.46
2023-03-28T07:36:56.190Z,-0.55
2023-03-28T07:39:49.283Z,-0.69
2023-03-28T07:42:19.923Z,-0.72
2023-03-28T07:44:48.106Z,-0.77
2023-03-28T07:47:18.434Z,-0.64
2023-03-28T07:49:47.357Z,-0.53
2023-03-28T07:52:15.787Z,-0.43
2023-03-28T07:54:46.472Z,-0.30
2023-03-28T07:57:14.994Z,-0.22
2023-03-28T08:00:09.316Z,-0.14
2023-03-28T08:02:44.823Z,-0.08
2023-03-28T08:05:15.458Z,0.02
2023-03-28T08:07:46.509Z,0.03
2023-03-28T08:10:15.252Z,0.07
2023-03-28T08:12:45.018Z,0.19
2023-03-28T08:15:13.548Z,0.25
2023-03-28T08:17:42.183Z,0.32
2023-03-28T08:20:11.942Z,0.34
2023-03-28T08:23:07.589Z,0.47
2023-03-28T08:25:45.095Z,0.54
2023-03-28T08:28:15.363Z,0.46
2023-03-28T08:30:44.540Z,0.52
2023-03-28T08:33:12.944Z,0.54
2023-03-28T08:35:42.292Z,0.56
2023-03-28T08:38:20.428Z,0.65
2023-03-28T08:41:04.093Z,0.70
2023-03-28T08:44:03.737Z,0.65
2023-03-28T08:46:35.916Z,0.68
2023-03-28T08:49:10.990Z,0.63
2023-03-28T08:51:47.784Z,0.61
2023-03-28T08:54:22.303Z,0.75
2023-03-28T08:56:57.493Z,0.86
2023-03-28T08:59:29.442Z,0.90
2023-03-28T09:01:57.732Z,0.84
2023-03-28T09:04:32.048Z,0.81
2023-03-28T09:08:00.452Z,0.82
2023-03-28T09:10:38.621Z,0.87
2023-03-28T09:13:27.434Z,0.95
2023-03-28T09:16:46.611Z,1.02
2023-03-28T09:19:47.142Z,1.09
2023-03-28T09:23:00.704Z,1.02
2023-03-28T09:25:56.329Z,1.02
2023-03-28T09:28:44.942Z,1.12
2023-03-28T09:31:18.373Z,1.19
2023-03-28T09:33:50.782Z,1.31
2023-03-28T09:36:45.290Z,1.48
2023-03-28T09:39:44.334Z,1.58
2023-03-28T09:42:32.231Z,1.72
2023-03-28T09:45:32.584Z,1.67
2023-03-28T09:48:02.106Z,1.96
2023-03-28T09:50:33.496Z,2.01
2023-03-28T09:53:03.856Z,2.23
2023-03-28T09:55:35.526Z,2.50
2023-03-28T09:58:12.482Z,2.66
2023-03-28T10:01:42.031Z,2.58
2023-03-28T10:04:14.588Z,2.73
2023-03-28T10:07:11.296Z,2.90
2023-03-28T10:09:55.225Z,3.23
2023-03-28T10:12:36.320Z,3.20
2023-03-28T10:15:11.084Z,3.44
2023-03-28T10:18:01.391Z,3.43
2023-03-28T10:20:38.472Z,3.15
2023-03-28T10:23:07.204Z,3.42
2023-03-28T10:25:40.388Z,3.37
2023-03-28T10:28:15.341Z,3.58
2023-03-28T10:30:53.777Z,3.67
2023-03-28T10:34:01.906Z,4.09
2023-03-28T10:36:54.048Z,4.08
2023-03-28T10:39:31.143Z,3.84
2023-03-28T10:42:20.050Z,3.98
2023-03-28T10:45:01.481Z,4.02
2023-03-28T10:47:32.289Z,4.16
2023-03-28T10:50:36.643Z,4.60
2023-03-28T10:53:12.557Z,4.74
2023-03-28T10:55:54.043Z,4.97
2023-03-28T10:58:39.763Z,5.09
2023-03-28T11:01:20.850Z,4.95
2023-03-28T11:04:24.704Z,5.22
2023-03-28T11:07:12.745Z,5.35
2023-03-28T11:10:07.469Z,5.44
2023-03-28T11:13:27.155Z,5.05
2023-03-28T11:16:04.335Z,5.38
2023-03-28T11:18:50.655Z,5.99
2023-03-28T11:21:44.195Z,5.49
2023-03-28T11:24:40.992Z,5.59
2023-03-28T11:28:43.144Z,5.61
2023-03-28T11:31:38.048Z,5.81
2023-03-28T11:34:46.397Z,6.22
2023-03-28T11:37:23.473Z,5.57
2023-03-28T11:40:14.186Z,5.36
2023-03-28T11:43:00.316Z,5.79
2023-03-28T11:45:50.142Z,6.17
2023-03-28T11:48:26.666Z,6.33
2023-03-28T11:51:17.714Z,6.52
2023-03-28T11:54:30.994Z,5.45
2023-03-28T11:57:21.333Z,5.13
2023-03-28T12:00:05.554Z,5.53
2023-03-28T12:02:48.171Z,5.31
2023-03-28T12:05:36.768Z,6.17
2023-03-28T12:08:32.535Z,6.02
2023-03-28T12:11:08.364Z,5.74
2023-03-28T12:14:11.119Z,5.96
2023-03-28T12:16:49.048Z,6.20
2023-03-28T12:19:30.565Z,6.97
2023-03-28T12:22:09.409Z,6.38
2023-03-28T12:25:08.088Z,5.53
2023-03-28T12:28:05.643Z,5.42
2023-03-28T12:30:36.907Z,5.87
2023-03-28T12:33:23.289Z,5.32
2023-03-28T12:36:26.360Z,4.53
2023-03-28T12:39:01.543Z,3.60
2023-03-28T12:41:40.339Z,3.62
2023-03-28T12:44:14.000Z,4.19
2023-03-28T12:47:03.291Z,4.61
2023-03-28T12:49:45.956Z,5.84
2023-03-28T12:52:23.572Z,6.57
2023-03-28T12:54:59.718Z,7.24
2023-03-28T12:57:42.698Z,8.20
2023-03-28T13:00:42.684Z,8.01
2023-03-28T13:04:07.714Z,9.16
2023-03-28T13:07:23.649Z,7.77
2023-03-28T13:10:02.149Z,6.32
2023-03-28T13:13:00.490Z,5.74
2023-03-28T13:15:38.538Z,5.78
2023-03-28T13:18:22.162Z,6.78
2023-03-28T13:20:52.476Z,6.79
2023-03-28T13:23:31.696Z,7.16
2023-03-28T13:26:04.084Z,6.52
2023-03-28T13:28:43.453Z,5.90
2023-03-28T13:31:22.154Z,6.86
2023-03-28T13:33:58.857Z,7.17
2023-03-28T13:36:38.019Z,7.69
2023-03-28T13:39:28.926Z,8.72
2023-03-28T13:42:02.289Z,8.63
2023-03-28T13:44:42.914Z,8.09
2023-03-28T13:47:23.783Z,7.59
2023-03-28T13:50:01.066Z,7.99
2023-03-28T13:52:35.493Z,6.91
2023-03-28T13:55:25.680Z,6.29
2023-03-28T13:57:54.259Z,5.44
2023-03-28T14:00:27.483Z,5.99
2023-03-28T14:03:47.876Z,6.79
2023-03-28T14:06:22.719Z,5.75
2023-03-28T14:08:59.887Z,5.89
2023-03-28T14:11:36.715Z,5.38
2023-03-28T14:14:19.024Z,4.59
2023-03-28T14:16:47.282Z,3.78
2023-03-28T14:19:21.761Z,3.13
2023-03-28T14:21:53.344Z,2.61
2023-03-28T14:24:25.714Z,2.01
2023-03-28T14:27:07.418Z,1.46
2023-03-28T14:29:37.288Z,1.91
2023-03-28T14:32:30.580Z,3.10
2023-03-28T14:35:22.573Z,4.56
2023-03-28T14:37:56.549Z,5.67
2023-03-28T14:40:25.862Z,6.22
2023-03-28T14:43:19.048Z,6.74
2023-03-28T14:45:54.484Z,7.24
2023-03-28T14:48:28.376Z,7.72
2023-03-28T14:51:00.516Z,8.34
2023-03-28T14:53:36.716Z,8.88
2023-03-28T14:56:29.986Z,9.08
2023-03-28T14:59:02.656Z,9.32
2023-03-28T15:01:34.034Z,9.44
2023-03-28T15:04:07.082Z,8.83
2023-03-28T15:06:37.146Z,7.82
2023-03-28T15:09:17.019Z,7.40
2023-03-28T15:11:47.281Z,6.79
2023-03-28T15:14:27.345Z,5.49
2023-03-28T15:16:57.812Z,5.60
2023-03-28T15:19:33.996Z,4.64
2023-03-28T15:22:13.773Z,4.09
2023-03-28T15:24:42.110Z,3.43
2023-03-28T15:27:23.241Z,3.03
2023-03-28T15:29:51.686Z,2.92
2023-03-28T15:32:20.704Z,2.96
2023-03-28T15:35:07.385Z,3.73
2023-03-28T15:37:46.371Z,4.39
2023-03-28T15:40:30.039Z,4.52
2023-03-28T15:43:00.947Z,4.09
2023-03-28T15:45:41.625Z,3.35
2023-03-28T15:48:17.271Z,2.76
2023-03-28T15:50:51.933Z,2.43
2023-03-28T15:53:21.247Z,2.38
2023-03-28T15:55:50.511Z,2.40
2023-03-28T15:58:22.411Z,2.17
2023-03-28T16:00:53.001Z,1.97
2023-03-28T16:03:21.349Z,1.91
2023-03-28T16:06:01.875Z,1.76
2023-03-28T16:08:45.616Z,1.60
2023-03-28T16:11:22.178Z,1.41
2023-03-28T16:14:13.954Z,1.36
2023-03-28T16:16:56.594Z,1.34
2023-03-28T16:19:34.995Z,1.13
2023-03-28T16:22:04.099Z,1.16
2023-03-28T16:24:32.590Z,1.11
2023-03-28T16:27:02.694Z,1.08
2023-03-28T16:29:31.029Z,0.98
2023-03-28T16:31:59.236Z,0.97
2023-03-28T16:34:35.098Z,0.87
2023-03-28T16:37:03.236Z,0.73
2023-03-28T16:39:32.179Z,0.66
2023-03-28T16:42:00.930Z,0.56
2023-03-28T16:44:28.946Z,0.50
2023-03-28T16:46:57.228Z,0.15
2023-03-28T16:49:25.372Z,-0.10
2023-03-28T16:51:55.037Z,-0.37
2023-03-28T16:54:24.028Z,-0.58
2023-03-28T16:56:52.287Z,-0.69
2023-03-28T16:59:20.855Z,-0.79
2023-03-28T17:01:49.222Z,-0.90
2023-03-28T17:04:17.380Z,-1.01
2023-03-28T17:06:45.888Z,-1.08
2023-03-28T17:09:14.769Z,-1.14
2023-03-28T17:11:43.060Z,-1.19
2023-03-28T17:14:12.494Z,-1.17
2023-03-28T17:16:40.789Z,-1.21
2023-03-28T17:19:09.050Z,-1.29
2023-03-28T17:21:38.097Z,-1.30
2023-03-28T17:24:11.951Z,-1.27
2023-03-28T17:26:40.917Z,-1.30
2023-03-28T17:29:12.029Z,-1.36
2023-03-28T17:31:42.318Z,-1.44
2023-03-28T17:34:13.544Z,-1.40
2023-03-28T17:36:41.798Z,-1.41
2023-03-28T17:39:10.613Z,-1.38
2023-03-28T17:41:38.784Z,-1.40
2023-03-28T17:44:09.013Z,-1.40
2023-03-28T17:46:37.551Z,-1.42
2023-03-28T17:49:08.228Z,-1.38
2023-03-28T17:51:36.695Z,-1.39
2023-03-28T17:54:12.105Z,-1.48
2023-03-28T17:56:42.590Z,-1.44
2023-03-28T17:59:12.674Z,-1.40
2023-03-28T18:01:41.133Z,-1.42
2023-03-28T18:04:09.382Z,-1.43
2023-03-28T18:07:02.443Z,-1.43
2023-03-28T18:09:45.064Z,-1.43
2023-03-28T18:12:16.650Z,-1.45
2023-03-28T18:14:46.080Z,-1.45
2023-03-28T18:17:16.218Z,-1.46
2023-03-28T18:19:44.300Z,-1.41
2023-03-28T18:22:13.422Z,-1.42
2023-03-28T18:24:41.629Z,-1.40
2023-03-28T18:27:10.109Z,-1.40
2023-03-28T18:29:38.389Z,-1.40
2023-03-28T18:32:09.399Z,-1.42
2023-03-28T18:34:37.620Z,-1.44
2023-03-28T18:37:08.117Z,-1.46
2023-03-28T18:39:36.397Z,-1.48
2023-03-28T18:42:06.441Z,-1.48
2023-03-28T18:44:38.975Z,-1.47
2023-03-28T18:47:07.178Z,-1.50
2023-03-28T18:49:35.210Z,-1.53
2023-03-28T18:52:06.542Z,-1.54
2023-03-28T18:54:35.168Z,-1.58
2023-03-28T18:57:07.338Z,-1.59
2023-03-28T18:59:38.061Z,-1.59
2023-03-28T19:02:13.034Z,-1.60
2023-03-28T19:04:41.218Z,-1.64
2023-03-28T19:07:10.124Z,-1.68
2023-03-28T19:09:38.371Z,-1.72
2023-03-28T19:12:09.301Z,-1.74
2023-03-28T19:14:38.855Z,-1.75
2023-03-28T19:17:07.526Z,-1.75
2023-03-28T19:19:37.652Z,-1.74
2023-03-28T19:22:06.680Z,-1.75
2023-03-28T19:24:34.719Z,-1.77
2023-03-28T19:27:05.126Z,-1.80
2023-03-28T19:29:33.738Z,-1.82
2023-03-28T19:32:01.931Z,-1.83
2023-03-28T19:34:29.916Z,-1.82
2023-03-28T19:36:57.959Z,-1.81
2023-03-28T19:39:26.136Z,-1.82
2023-03-28T19:41:55.977Z,-1.82
2023-03-28T19:44:24.130Z,-1.83
2023-03-28T19:46:52.123Z,-1.84
2023-03-28T19:49:20.218Z,-1.86
2023-03-28T19:51:48.290Z,-1.87
2023-03-28T19:54:16.608Z,-1.87
2023-03-28T19:56:46.001Z,-1.87
2023-03-28T19:59:15.668Z,-1.87
2023-03-28T20:01:43.725Z,-1.90
2023-03-28T20:04:12.192Z,-1.93
2023-03-28T20:06:40.651Z,-1.94
2023-03-28T20:09:08.785Z,-1.96
2023-03-28T20:11:39.969Z,-1.96
2023-03-28T20:14:09.091Z,-1.98
2023-03-28T20:16:38.221Z,-1.97
2023-03-28T20:19:07.027Z,-1.98
2023-03-28T20:21:35.600Z,-1.97
2023-03-28T20:24:04.239Z,-1.94
2023-03-28T20:26:33.119Z,-1.92
2023-03-28T20:29:01.550Z,-1.93
2023-03-28T20:31:29.761Z,-1.97
2023-03-28T20:33:58.015Z,-1.97
2023-03-28T20:36:27.387Z,-1.99
2023-03-28T20:38:56.497Z,-2.02
2023-03-28T20:41:26.455Z,-2.05
2023-03-28T20:44:03.174Z,-2.07
2023-03-28T20:46:38.174Z,-2.08
2023-03-28T20:49:07.902Z,-2.09
2023-03-28T20:51:39.292Z,-2.11
2023-03-28T20:54:07.633Z,-2.14
2023-03-28T20:56:36.365Z,-2.16
2023-03-28T20:59:04.785Z,-2.20
2023-03-28T21:01:32.923Z,-2.21
2023-03-28T21:04:02.294Z,-2.24
2023-03-28T21:06:34.581Z,-2.24
2023-03-28T21:09:10.876Z,-2.26
2023-03-28T21:11:39.943Z,-2.25
2023-03-28T21:14:10.332Z,-2.24
2023-03-28T21:16:38.693Z,-2.23
2023-03-28T21:19:07.044Z,-2.22
2023-03-28T21:21:36.171Z,-2.23
2023-03-28T21:24:05.208Z,-2.26
2023-03-28T21:26:33.362Z,-2.28
2023-03-28T21:29:01.700Z,-2.32
2023-03-28T21:31:29.916Z,-2.31
2023-03-28T21:33:59.259Z,-2.31
2023-03-28T21:36:28.046Z,-2.29
2023-03-28T21:38:57.052Z,-2.29
2023-03-28T21:41:27.312Z,-2.29
2023-03-28T21:43:55.782Z,-2.33
2023-03-28T21:46:23.930Z,-2.37
2023-03-28T21:48:51.915Z,-2.40
2023-03-28T21:51:20.126Z,-2.44
2023-03-28T21:53:48.673Z,-2.46
2023-03-28T21:56:16.880Z,-2.49
2023-03-28T21:58:44.990Z,-2.51
2023-03-28T22:01:17.502Z,-2.53
2023-03-28T22:03:47.224Z,-2.54
2023-03-28T22:06:18.174Z,-2.54
2023-03-28T22:08:49.430Z,-2.51
2023-03-28T22:11:20.387Z,-2.49
2023-03-28T22:13:48.504Z,-2.47
2023-03-28T22:16:16.586Z,-2.46
2023-03-28T22:18:50.078Z,-2.47
2023-03-28T22:21:18.491Z,-2.48
2023-03-28T22:23:49.624Z,-2.50
2023-03-28T22:26:18.118Z,-2.52
2023-03-28T22:28:46.629Z,-2.53
2023-03-28T22:31:16.940Z,-2.55
2023-03-28T22:33:45.081Z,-2.54
2023-03-28T22:36:15.381Z,-2.50
2023-03-28T22:38:43.668Z,-2.49
2023-03-28T22:41:12.150Z,-2.49
2023-03-28T22:43:44.114Z,-2.48
2023-03-28T22:46:12.885Z,-2.47
2023-03-28T22:48:42.102Z,-2.46
2023-03-28T22:51:13.997Z,-2.45
2023-03-28T22:53:42.017Z,-2.45
2023-03-28T22:56:10.149Z,-2.45
2023-03-28T22:58:38.219Z,-2.41
2023-03-28T23:01:06.586Z,-2.38
2023-03-28T23:03:34.474Z,-2.35
2023-03-28T23:06:06.279Z,-2.35
2023-03-28T23:08:34.957Z,-2.36
2023-03-28T23:11:03.335Z,-2.35
2023-03-28T23:13:31.882Z,-2.37
2023-03-28T23:16:00.242Z,-2.39
2023-03-28T23:18:30.252Z,-2.40
2023-03-28T23:20:58.270Z,-2.38
2023-03-28T23:23:27.289Z,-2.38
2023-03-28T23:25:55.402Z,-2.36
2023-03-28T23:28:23.438Z,-2.31
2023-03-28T23:30:51.359Z,-2.30
2023-03-28T23:33:19.834Z,-2.31
2023-03-28T23:35:48.454Z,-2.33
2023-03-28T23:38:17.691Z,-2.34
2023-03-28T23:40:46.718Z,-2.37
2023-03-28T23:43:15.016Z,-2.40
2023-03-28T23:45:43.712Z,-2.44
2023-03-28T23:48:12.008Z,-2.44
2023-03-28T23:50:40.427Z,-2.47
2023-03-28T23:53:08.531Z,-2.48
2023-03-28T23:55:36.985Z,-2.50
2023-03-28T23:58:05.603Z,-2.52
